Date,TemperatureHighF,TemperatureAvgF,TemperatureLowF,DewpointHighF,DewpointAvgF,DewpointLowF,HumidityHigh,HumidityAvg,HumidityLow,PressureMaxIn,PressureMinIn,WindSpeedMaxMPH,WindSpeedAvgMPH,GustSpeedMaxMPH,PrecipitationSumIn
2013-1-1,66.7,57.7,48.0,61.6,54.4,45.1,93,89,81,30.11,29.85,10,5,28,1.00
2013-1-2,48.0,43.9,41.0,45.2,40.2,35.9,91,87,82,30.23,30.08,9,4,18,0.00
2013-1-3,50.9,43.5,38.3,40.0,36.2,34.1,86,76,64,30.37,30.21,9,3,22,0.01
2013-1-4,53.8,45.4,39.2,39.2,35.8,32.9,80,70,49,30.46,30.28,7,2,14,0.00
2013-1-5,48.9,45.7,43.7,42.5,40.0,37.2,93,81,70,30.34,30.19,5,2,14,0.27
2013-1-6,55.4,47.7,42.3,47.4,43.5,38.5,95,86,71,30.27,30.17,8,3,20,0.21
2013-1-7,57.4,47.0,38.3,45.2,40.7,36.2,93,80,60,30.29,30.10,7,1,11,0.01
2013-1-8,62.6,57.0,49.8,60.1,51.3,41.8,92,81,70,30.13,29.97,6,2,17,0.76
2013-1-9,67.8,64.5,60.6,66.1,62.4,56.7,95,93,87,30.10,29.97,7,2,20,2.49
2013-1-10,68.2,65.1,63.1,66.1,63.2,60.8,95,93,91,30.07,29.86,12,3,24,3.45
2013-1-11,72.3,64.9,58.5,69.7,60.5,54.7,94,86,66,30.03,29.91,6,1,15,0.08
2013-1-12,77.2,73.2,70.9,69.3,67.3,66.1,91,82,70,29.96,29.80,10,5,32,0.00
2013-1-13,73.4,61.0,45.9,67.6,56.7,43.7,93,86,76,30.08,29.72,13,6,34,1.15
2013-1-14,45.9,41.5,37.2,43.7,40.2,35.4,98,95,90,30.13,30.00,10,4,24,0.45
2013-1-15,40.8,38.7,36.0,39.9,37.8,34.4,99,96,94,30.06,29.94,8,4,20,0.40
2013-1-16,39.2,36.8,35.4,38.7,35.8,34.2,99,96,94,30.18,30.00,12,4,20,0.30
2013-1-17,55.4,42.8,33.3,41.4,36.7,30.9,98,80,55,30.42,30.17,10,2,24,0.00
2013-1-18,57.0,43.5,34.5,42.6,36.3,31.9,95,77,46,30.50,30.34,4,1,9,0.00
2013-1-19,61.0,45.4,34.7,48.1,39.2,31.0,95,80,57,30.34,27.19,4,0,9,0.00
2013-1-20,68.0,51.5,36.7,53.9,43.3,33.8,95,75,48,30.24,30.09,4,1,10,0.00
2013-1-21,69.8,54.6,42.6,54.1,45.9,40.4,93,74,51,30.20,30.07,4,1,11,0.00
2013-1-22,68.5,52.3,41.7,50.9,43.2,36.5,86,73,53,30.31,29.94,4,1,9,0.00
2013-1-23,72.7,58.8,45.7,57.0,50.6,44.1,95,76,51,30.23,29.94,5,2,10,0.00
2013-1-24,74.3,62.0,52.3,61.8,55.4,48.6,90,80,64,30.29,30.16,5,1,15,0.00
2013-1-25,75.4,63.3,55.6,62.5,56.5,52.5,91,79,58,30.19,30.08,6,2,20,0.00
2013-1-26,76.3,63.5,55.9,64.2,57.4,53.7,93,82,56,30.20,30.10,4,1,14,0.00
2013-1-27,76.3,65.5,56.3,61.2,57.5,53.1,91,76,55,30.19,30.10,9,3,24,0.00
2013-1-28,75.0,68.3,62.8,64.9,61.3,57.6,85,79,67,30.17,30.02,7,3,18,0.00
2013-1-29,78.1,72.1,67.1,67.7,65.2,62.5,86,79,67,30.03,29.68,13,6,34,0.00
2013-1-30,73.6,56.9,40.6,66.4,45.2,33.5,88,66,44,30.16,29.64,14,5,33,0.18
2013-1-31,63.3,49.4,35.2,42.7,34.8,30.1,88,61,31,30.29,30.16,6,1,14,0.00
2013-2-1,64.2,49.9,43.2,45.7,40.2,36.8,84,70,42,30.37,30.25,5,0,11,0.00
2013-2-2,71.2,54.8,40.1,54.4,46.4,36.1,92,74,54,30.28,30.13,6,1,18,0.00
2013-2-3,71.4,58.2,46.4,53.5,43.1,31.1,89,62,25,30.26,30.05,7,1,17,0.00
2013-2-4,66.9,55.0,46.2,53.9,47.4,37.7,86,76,60,30.07,29.87,4,1,14,0.00
2013-2-5,70.7,62.0,56.7,61.3,57.3,52.2,94,85,71,29.97,29.86,4,1,9,0.05
2013-2-6,66.9,59.6,53.6,61.2,56.2,51.6,95,89,78,30.05,29.87,5,1,9,0.52
2013-2-7,69.1,61.7,58.1,60.1,57.3,54.6,93,86,73,29.93,29.80,5,1,11,0.13
2013-2-8,67.3,59.6,51.3,59.8,54.4,46.3,93,83,73,30.12,29.90,10,3,23,0.00
2013-2-9,67.3,59.2,53.4,57.4,52.2,48.1,84,78,68,30.14,29.92,6,3,16,0.00
2013-2-10,78.3,68.9,62.4,68.7,63.1,57.4,91,82,71,29.94,29.78,11,4,32,0.11
2013-2-11,63.5,56.1,52.9,60.5,53.7,50.3,94,92,86,30.11,29.90,9,1,28,2.09
2013-2-12,72.3,59.4,54.1,68.8,57.0,37.8,95,92,82,29.99,29.83,9,3,14,0.11
2013-2-13,58.3,51.9,41.2,51.3,45.8,37.9,90,80,65,30.03,29.84,12,3,28,0.06
2013-2-14,61.0,46.9,37.6,48.3,39.8,35.7,95,78,54,30.12,30.01,6,1,14,0.00
2013-2-15,65.5,47.7,38.3,50.5,40.4,35.6,91,77,55,30.18,30.05,10,2,23,0.00
2013-2-16,56.1,46.9,37.8,41.3,32.0,25.5,78,58,34,30.32,30.17,13,5,30,0.00
2013-2-17,66.0,50.0,33.8,48.2,38.6,28.7,83,66,46,30.27,30.13,9,3,20,0.00
2013-2-18,71.1,61.0,49.1,62.5,53.2,41.5,90,76,58,30.13,29.83,13,6,38,0.92
2013-2-19,64.4,55.4,47.7,59.6,45.2,37.2,86,69,46,30.21,29.90,10,3,23,0.01
2013-2-20,61.9,52.9,43.3,56.8,41.1,30.6,86,65,41,30.19,29.95,8,4,20,13.28
2013-2-21,73.4,60.7,54.3,66.7,50.8,38.2,88,70,54,29.95,29.70,10,4,26,0.22
2013-2-22,65.3,60.3,56.3,61.5,53.5,50.6,89,79,63,29.96,29.84,7,2,14,0.02
2013-2-23,66.9,56.6,49.1,53.8,48.5,43.1,87,75,60,29.97,29.85,6,3,18,0.00
2013-2-24,72.7,58.6,43.5,57.6,49.5,39.5,89,73,52,29.97,29.68,6,2,14,0.08
2013-2-25,68.9,62.0,52.3,66.0,56.8,38.3,92,84,59,29.69,29.38,10,3,25,0.79
2013-2-26,61.9,51.4,44.6,44.1,40.1,35.6,80,66,51,29.91,29.59,9,4,28,0.00
2013-2-27,71.1,56.6,43.2,52.1,43.9,38.3,89,65,39,30.07,29.90,11,3,23,0.00
2013-2-28,55.2,47.2,42.3,38.5,35.9,33.7,75,65,48,30.19,30.06,10,3,23,0.00
2013-3-1,61.3,46.3,38.3,41.6,35.2,33.1,83,67,37,30.18,29.92,10,2,22,19.70
2013-3-2,50.2,41.6,33.4,34.7,31.6,26.4,85,69,48,30.26,30.15,12,4,28,0.00
2013-3-3,59.7,45.2,29.1,37.5,32.1,25.1,86,63,37,30.29,30.08,5,2,12,0.00
2013-3-4,74.7,59.3,43.7,58.3,50.8,37.5,88,74,54,30.08,29.86,11,4,24,0.00
2013-3-5,72.1,63.0,51.3,61.8,50.7,33.8,84,66,37,30.24,29.85,13,5,23,0.00
2013-3-6,63.7,51.6,39.7,37.0,32.9,28.6,68,50,31,30.36,30.22,9,3,20,0.00
2013-3-7,66.7,51.7,36.9,41.6,36.6,29.9,82,59,35,30.34,30.21,4,1,12,0.00
2013-3-8,71.4,56.7,39.2,50.9,43.3,36.0,90,64,35,30.28,29.92,5,1,10,14.39
2013-3-9,58.3,56.1,54.0,50.8,49.4,48.1,82,78,75,30.10,30.04,2,0,7,0.00
2013-3-10,77.2,65.3,53.6,64.0,58.7,51.0,91,80,64,29.93,29.79,17,5,38,0.63
2013-3-11,59.7,53.4,45.0,51.9,42.5,37.5,92,68,53,30.04,29.90,14,4,24,0.07
2013-3-12,67.1,53.5,38.1,44.7,40.2,35.4,90,64,42,30.06,29.92,8,2,11,0.00
2013-3-13,67.6,52.9,42.1,42.9,39.0,34.1,88,62,32,30.25,30.06,11,2,32,0.00
2013-3-14,72.7,54.5,38.1,46.4,39.2,33.9,86,60,28,30.26,30.11,4,1,12,0.00
2013-3-15,76.5,61.2,44.1,56.9,50.5,41.3,91,70,47,30.12,29.93,6,2,16,0.00
2013-3-16,77.9,64.7,52.0,60.7,55.5,49.4,95,74,50,29.93,29.74,6,2,17,0.00
2013-3-17,77.5,67.8,58.6,65.3,61.1,56.3,94,80,61,29.85,29.59,7,2,20,16.70
2013-3-18,84.9,75.1,68.0,68.4,65.5,59.4,87,73,54,29.75,29.57,7,2,18,0.00
2013-3-19,76.6,65.2,52.3,59.4,49.5,44.1,74,58,43,29.84,29.75,6,3,15,0.00
2013-3-20,70.2,59.5,50.9,47.9,42.0,32.0,87,55,30,30.02,29.81,13,4,28,0.04
2013-3-21,67.8,55.2,47.5,47.0,42.2,37.7,77,63,40,29.88,29.63,7,1,20,16.67
2013-3-22,79.9,67.0,57.0,67.0,58.3,46.4,86,74,63,29.68,29.53,6,2,18,0.00
2013-3-23,72.9,69.5,67.8,66.7,65.4,56.3,90,87,77,29.85,29.39,10,1,20,16.71
2013-3-24,67.6,57.0,46.4,56.7,44.6,33.3,84,65,36,30.00,29.46,15,6,32,16.69
2013-3-25,61.0,48.7,37.8,33.5,30.0,24.9,72,51,26,30.33,29.86,13,8,28,16.69
2013-3-26,57.4,46.6,35.4,33.6,29.5,24.6,74,52,35,30.47,30.33,11,4,17,0.00
2013-3-27,65.8,49.9,35.8,40.1,34.3,29.0,81,58,31,30.48,30.13,6,2,7,0.01
2013-3-28,72.0,56.2,39.2,49.9,42.7,36.0,89,64,36,30.18,30.03,6,1,7,0.00
2013-3-29,77.2,62.9,48.2,55.6,48.7,42.0,91,64,29,30.12,29.98,6,1,9,0.00
2013-3-30,77.0,65.3,54.9,61.0,56.6,50.6,90,75,54,30.01,29.83,7,1,16,0.00
2013-3-31,79.2,64.7,57.7,65.2,59.2,54.5,90,83,62,29.84,29.70,17,1,26,0.08
2013-4-1,78.6,64.7,55.8,61.3,56.6,53.0,92,77,54,29.91,29.77,4,1,6,0.00
2013-4-2,78.1,66.6,54.1,59.9,55.7,50.0,88,70,48,29.92,29.75,5,1,8,0.00
2013-4-3,68.4,58.0,50.0,59.2,54.1,47.4,93,87,71,29.87,29.71,7,3,14,1.02
2013-4-4,54.7,50.1,48.0,49.3,46.8,44.1,94,89,81,29.92,29.78,8,4,13,0.01
2013-4-5,70.2,56.1,45.3,53.7,47.1,41.4,88,73,49,30.02,29.89,8,3,13,0.00
2013-4-6,72.9,60.2,46.8,57.0,50.1,43.1,89,71,51,29.96,29.84,8,2,14,0.00
2013-4-7,77.5,67.4,58.1,61.6,57.5,52.8,88,72,54,29.88,29.75,9,2,12,16.70
2013-4-8,80.4,70.0,62.6,63.3,60.9,58.0,91,74,51,29.78,29.69,8,3,14,0.00
2013-4-9,82.9,75.3,67.6,69.5,66.5,61.7,87,75,63,29.76,29.65,11,4,19,0.00
2013-4-10,82.6,77.3,72.9,69.6,67.7,65.6,79,73,63,29.73,29.59,12,4,20,0.00
2013-4-11,75.9,60.3,51.1,68.3,54.8,47.5,92,83,73,29.68,29.50,16,3,23,0.78
2013-4-12,75.2,59.3,45.9,55.3,49.2,43.4,92,72,43,29.83,29.68,5,1,8,0.00
2013-4-13,79.7,66.0,51.1,54.0,49.9,46.8,86,59,33,29.85,29.66,5,1,8,0.00
2013-4-14,74.5,66.2,56.7,63.7,60.0,50.5,92,81,57,29.67,29.53,7,2,12,1.50
2013-4-15,83.5,73.5,64.2,70.2,66.2,60.9,92,79,60,29.75,29.60,6,2,9,0.00
2013-4-16,83.8,77.4,74.1,71.4,69.9,69.0,88,78,65,29.86,29.73,8,3,14,0.00
2013-4-17,86.0,78.4,73.0,71.0,69.1,67.7,86,74,58,29.85,29.70,8,3,14,0.00
2013-4-18,84.0,74.4,53.1,69.9,65.2,49.3,87,74,61,29.79,29.55,12,5,20,0.27
2013-4-19,62.4,53.7,46.8,49.8,42.4,38.6,88,67,46,30.02,29.78,16,5,21,0.00
2013-4-20,69.6,56.7,42.8,48.9,43.8,38.6,88,65,40,30.09,29.93,6,1,10,0.00
2013-4-21,73.6,60.4,47.7,52.9,48.2,44.1,89,67,41,30.03,29.91,4,0,8,0.00
2013-4-22,79.0,63.8,51.1,57.9,52.5,46.7,88,69,42,29.96,29.80,4,0,7,0.00
2013-4-23,82.2,72.8,63.9,67.2,63.3,-99.9,90,74,1,29.86,29.74,8,2,60,3.67
2013-4-24,72.0,71.8,71.8,65.6,65.5,65.3,81,81,80,29.83,29.82,4,2,7,0.00
2013-4-25,70.5,66.1,59.9,55.7,51.9,47.9,69,60,54,30.10,30.04,4,1,6,0.01
2013-4-26,72.7,58.0,55.2,59.3,50.1,47.8,82,75,63,30.08,30.01,5,0,8,0.00
2013-4-27,78.6,72.5,70.2,66.2,65.3,64.3,85,78,64,29.82,29.75,5,1,14,0.04
2013-4-28,74.5,70.5,64.6,66.9,64.1,60.0,86,80,66,29.79,29.66,7,1,15,0.00
2013-4-29,82.2,70.7,60.8,66.3,62.0,57.6,91,75,51,29.78,29.60,3,0,9,0.00
2013-4-30,75.6,69.1,64.4,67.6,64.0,60.1,89,84,73,29.64,29.55,5,0,16,0.01
2013-5-1,81.7,71.2,64.6,66.9,64.2,61.3,89,79,57,29.65,29.55,10,1,24,0.53
2013-5-2,73.2,67.6,64.2,67.0,62.9,61.2,91,85,74,29.74,29.62,9,2,23,0.01
2013-5-3,66.9,54.1,48.4,60.0,47.9,44.0,89,80,64,29.80,29.71,12,6,31,0.00
2013-5-4,73.6,59.0,43.0,53.3,46.5,40.3,92,67,37,29.79,29.60,5,1,11,0.00
2013-5-5,66.6,57.7,49.6,52.7,46.2,42.4,79,66,50,29.80,29.65,12,4,25,0.00
2013-5-6,76.3,64.6,49.3,56.7,51.8,44.8,86,65,49,30.08,29.75,4,1,12,0.59
2013-5-7,81.0,67.9,55.6,63.1,57.4,49.8,87,71,47,30.31,29.99,4,0,11,0.59
2013-5-8,83.1,71.2,59.2,64.6,59.1,54.5,88,67,46,30.12,30.03,6,1,16,0.00
2013-5-9,79.9,72.3,62.4,67.2,64.1,57.7,88,76,64,30.10,29.98,7,2,18,0.00
2013-5-10,73.9,68.1,63.7,67.1,63.4,59.8,90,85,77,30.08,29.82,14,2,20,1.83
2013-5-11,76.1,69.0,63.0,69.0,64.2,59.4,92,85,73,30.10,29.88,6,1,15,0.33
2013-5-12,77.0,67.5,59.2,65.3,59.8,51.3,90,77,61,30.20,30.08,11,3,23,0.00
2013-5-13,79.5,65.9,52.3,56.1,52.4,47.9,88,64,39,30.32,30.18,4,1,11,0.00
2013-5-14,84.6,71.5,57.7,62.3,56.4,53.3,87,62,39,30.29,30.16,5,1,11,0.00
2013-5-15,81.9,72.1,55.6,62.9,58.9,49.8,81,64,44,30.33,30.03,6,2,16,2.75
2013-5-16,83.3,74.0,66.0,67.0,63.8,60.2,86,71,53,30.06,29.92,8,2,20,0.00
2013-5-17,86.9,77.6,70.3,70.9,68.3,65.3,87,74,57,30.04,29.95,6,2,16,0.00
2013-5-18,88.7,79.9,73.9,70.9,68.9,67.0,83,70,54,30.08,29.98,6,2,14,0.00
2013-5-19,88.7,80.0,73.8,71.1,69.7,68.3,86,72,55,30.01,29.94,7,3,20,0.00
2013-5-20,89.1,81.3,75.9,72.4,70.5,68.9,82,70,57,30.01,29.90,8,4,20,0.00
2013-5-21,88.7,80.9,74.7,72.2,70.4,69.3,85,71,55,29.97,29.82,8,3,20,0.00
2013-5-22,80.4,74.7,68.9,72.0,68.4,64.1,88,81,66,30.00,29.79,12,1,24,0.54
2013-5-23,88.3,75.8,66.6,74.0,68.1,62.4,89,78,54,30.14,29.99,8,1,17,0.35
2013-5-24,86.9,75.6,66.4,73.0,68.4,62.6,90,79,58,30.20,30.07,4,0,10,0.01
2013-5-25,84.9,76.9,69.6,71.4,67.2,62.4,86,73,59,30.25,30.14,4,1,14,0.00
2013-5-26,84.7,77.7,70.9,70.6,67.5,64.5,83,71,58,30.20,30.11,6,1,15,0.00
2013-5-27,88.5,78.5,70.5,70.4,66.7,64.2,85,68,48,30.14,30.02,7,2,15,0.00
2013-5-28,87.3,78.0,71.2,68.4,66.7,64.5,83,69,50,30.09,29.99,7,2,17,0.00
2013-5-29,88.5,78.9,69.3,71.1,67.9,63.2,86,70,52,30.03,29.91,7,2,18,0.00
2013-5-30,87.4,80.6,74.1,72.4,70.4,68.3,87,72,57,30.00,29.91,8,3,20,0.00
2013-5-31,88.7,81.3,75.6,73.4,71.1,68.9,85,72,58,30.01,29.94,6,3,16,0.00
2013-6-1,90.3,81.2,75.7,73.6,71.4,70.0,85,73,55,29.99,29.91,6,2,18,0.00
2013-6-2,81.9,76.7,72.3,72.0,70.4,67.1,88,81,69,30.04,29.91,8,1,78,0.69
2013-6-3,85.8,77.9,71.4,74.1,69.9,67.5,89,77,62,29.98,29.88,5,1,12,0.00
2013-6-4,90.1,81.3,72.0,73.7,69.9,65.8,83,69,53,29.97,29.86,2,0,7,0.00
2013-6-5,90.0,82.9,74.8,74.6,72.1,69.7,85,70,57,29.95,29.81,3,0,8,0.00
2013-6-6,85.8,77.8,71.2,74.5,70.1,65.6,86,77,65,29.90,29.75,6,1,14,0.11
2013-6-7,83.7,75.9,70.3,70.4,67.3,66.0,87,75,57,29.94,29.85,6,1,15,0.01
2013-6-8,86.0,74.3,68.9,70.4,66.3,63.4,85,77,55,30.01,29.91,8,0,16,0.85
2013-6-9,87.8,75.5,68.9,73.4,68.7,63.9,89,80,60,30.01,29.91,6,1,99,0.01
2013-6-10,88.5,79.6,70.7,75.2,70.9,66.7,89,76,60,30.06,29.99,5,1,14,0.00
2013-6-11,89.8,83.0,75.6,75.5,72.2,70.6,86,71,56,30.12,30.03,4,0,8,0.00
2013-6-12,91.2,83.2,75.9,74.1,72.0,70.8,85,70,54,30.14,30.03,3,0,8,0.00
2013-6-13,91.9,84.0,76.5,74.8,72.2,70.5,85,69,51,30.11,29.94,4,1,11,0.00
2013-6-14,93.4,85.7,79.2,77.0,72.9,68.3,72,66,57,30.07,29.88,4,1,11,0.00
2013-6-15,90.9,82.3,73.2,74.8,70.5,65.6,78,68,57,30.03,29.94,3,0,9,0.00
2013-6-16,91.8,84.2,78.8,73.4,71.9,70.0,80,67,54,30.06,29.98,2,0,8,0.00
2013-6-17,89.2,83.0,74.5,73.8,71.2,69.0,85,68,55,30.07,29.95,4,1,14,0.00
2013-6-18,90.7,82.1,72.9,72.5,70.2,66.7,84,68,52,30.04,29.92,11,1,23,0.04
2013-6-19,81.1,76.4,72.5,73.4,70.8,67.8,87,83,76,30.08,29.99,4,0,9,0.52
2013-6-20,88.5,79.8,74.5,75.4,71.6,70.4,89,77,58,30.15,30.04,5,0,12,0.00
2013-6-21,90.0,81.1,73.8,75.2,71.5,68.8,87,73,57,30.16,30.08,2,0,8,0.00
2013-6-22,90.7,81.7,73.2,74.0,70.5,67.8,86,70,53,30.14,30.02,4,0,11,0.00
2013-6-23,81.7,74.9,73.0,72.9,68.9,67.3,86,82,75,30.10,30.04,3,0,9,0.00
2013-6-24,89.8,83.2,76.1,72.7,70.8,68.5,79,67,55,30.14,30.07,5,1,20,0.56
2013-6-25,90.9,80.9,73.8,73.8,70.0,66.2,86,71,50,30.13,30.01,4,1,11,0.00
2013-6-26,93.0,83.7,74.3,74.2,70.8,68.0,85,67,48,30.09,29.98,2,0,8,0.00
2013-6-27,93.2,83.7,75.7,73.9,71.4,69.5,83,67,51,30.07,29.96,2,0,9,0.00
2013-6-28,92.8,85.2,78.8,73.8,72.3,71.1,80,66,52,30.00,29.81,5,1,10,0.00
2013-6-29,93.9,83.5,78.8,74.8,72.5,70.5,78,70,52,29.85,29.67,3,0,8,0.00
2013-6-30,89.4,80.0,74.1,71.6,69.2,65.0,83,71,45,29.84,29.69,5,1,14,0.00
2013-7-1,81.1,77.2,73.6,65.9,64.7,63.7,73,66,58,29.95,29.90,0,0,0,0.56
2013-7-2,89.1,78.2,68.9,69.0,64.6,62.0,81,64,45,30.02,29.93,5,1,14,0.00
2013-7-3,89.2,78.5,69.4,68.6,64.7,60.8,76,64,45,30.04,29.94,6,1,15,0.00
2013-7-4,90.1,79.5,70.0,71.8,66.8,63.5,82,66,48,29.99,29.93,4,1,12,0.00
2013-7-5,89.4,78.3,72.0,72.9,68.2,64.9,81,72,55,30.00,29.93,4,1,12,0.04
2013-7-6,84.9,77.3,70.7,73.0,69.1,65.3,86,76,64,30.00,29.93,7,1,73,0.06
2013-7-7,85.6,78.4,75.2,75.0,71.2,69.5,86,79,64,30.08,29.96,6,1,14,0.26
2013-7-8,91.2,80.8,72.5,73.1,70.6,67.4,87,72,53,30.17,30.06,6,1,15,0.00
2013-7-9,91.2,82.8,74.8,75.1,71.5,68.7,85,70,53,30.19,30.07,3,0,12,0.01
2013-7-10,92.8,84.4,76.1,73.4,71.3,70.2,84,66,49,30.12,29.97,2,0,8,0.00
2013-7-11,91.2,80.1,73.0,73.3,70.6,67.8,86,73,54,30.02,29.92,4,1,15,0.50
2013-7-12,88.5,76.1,73.0,72.5,68.9,66.6,85,79,56,29.97,29.87,3,0,7,0.25
2013-7-13,89.2,79.9,70.9,71.4,66.8,62.8,76,65,44,29.96,29.89,5,0,12,0.00
2013-7-14,86.5,78.1,71.6,73.1,67.9,64.2,80,71,55,30.00,29.91,3,0,12,0.00
2013-7-15,88.0,76.6,72.9,73.6,69.2,66.3,85,78,57,30.12,29.97,5,0,12,0.18
2013-7-16,86.5,79.2,73.8,73.5,70.6,68.0,86,76,61,30.17,30.08,3,0,9,0.00
2013-7-17,90.0,80.9,75.4,73.3,71.1,66.9,85,73,53,30.23,30.12,5,1,16,0.01
2013-7-18,89.2,79.0,72.9,74.1,69.2,66.4,85,72,57,30.17,30.02,5,1,15,0.00
2013-7-19,87.6,79.1,71.1,74.0,69.2,65.5,85,72,60,30.08,29.96,4,0,10,0.00
2013-7-20,91.2,79.4,72.9,73.2,69.9,67.1,85,74,51,30.00,29.91,5,0,15,0.07
2013-7-21,85.8,79.2,73.8,73.2,70.6,68.4,87,75,63,30.06,29.96,5,1,12,0.07
2013-7-22,92.1,83.4,75.2,76.0,72.2,69.2,85,70,54,30.06,29.98,4,1,14,0.00
2013-7-23,93.7,84.7,77.4,74.3,72.0,70.8,83,67,49,30.07,29.92,3,1,15,0.00
2013-7-24,91.6,83.6,77.9,72.6,71.1,69.5,80,67,50,30.01,29.89,6,1,16,0.01
2013-7-25,90.5,81.7,76.6,73.3,71.5,69.2,84,72,54,30.07,29.94,3,0,11,0.00
2013-7-26,91.8,82.8,74.5,73.6,70.9,68.5,84,68,53,30.08,29.95,3,0,9,0.00
2013-7-27,86.4,80.0,75.9,75.3,72.0,68.1,83,77,63,29.98,29.87,5,1,14,0.58
2013-7-28,88.2,79.1,73.4,73.1,71.2,69.0,87,77,58,30.02,29.92,3,0,8,0.01
2013-7-29,85.1,78.1,76.3,75.2,72.2,71.1,85,82,67,30.11,30.01,1,0,6,0.00
2013-7-30,91.6,85.2,80.6,71.8,70.4,68.1,66,61,51,30.09,30.05,1,0,5,0.00
2013-7-31,94.3,84.3,75.9,74.0,71.0,68.2,81,65,50,30.12,29.96,2,0,8,0.00
2013-8-1,94.1,84.3,77.2,74.2,71.8,68.9,79,67,51,30.05,29.91,4,0,9,0.00
2013-8-2,96.1,86.3,79.3,74.5,72.5,71.2,77,64,48,30.01,29.92,4,0,9,0.00
2013-8-3,95.4,85.7,78.8,74.1,72.3,71.0,78,65,49,30.08,29.99,2,0,9,0.00
2013-8-4,95.2,82.9,77.4,75.0,72.0,69.2,84,71,49,30.11,30.00,6,0,23,0.18
2013-8-5,95.0,84.2,77.0,75.9,72.8,70.4,85,70,49,30.08,29.95,5,1,12,0.00
2013-8-6,95.4,85.8,77.5,74.0,72.1,70.6,82,65,46,30.02,29.90,2,0,9,0.00
2013-8-7,96.1,85.6,78.6,74.6,72.1,70.8,79,65,46,30.00,29.88,3,0,10,0.00
2013-8-8,95.7,85.5,75.9,74.8,71.6,69.5,83,65,45,29.99,29.88,5,1,12,0.18
2013-8-9,96.6,84.6,77.2,74.8,72.0,70.0,81,67,47,30.01,29.91,6,1,18,0.00
2013-8-10,91.8,83.1,77.7,75.1,71.8,69.1,81,69,53,30.08,30.00,5,0,17,0.00
2013-8-11,90.0,81.1,74.8,73.9,70.8,68.6,84,72,53,30.11,30.04,6,1,15,0.00
2013-8-12,90.3,81.9,75.7,75.3,72.1,70.3,84,73,57,30.11,30.01,3,0,8,0.00
2013-8-13,94.5,81.8,75.6,74.8,71.2,66.7,80,71,49,30.05,29.91,7,1,172,0.00
2013-8-14,82.9,77.6,75.4,75.5,70.4,67.1,84,79,72,30.00,29.93,5,0,14,0.17
2013-8-15,86.4,77.5,70.3,72.1,68.6,64.6,85,75,59,30.03,29.93,4,1,8,0.00
2013-8-16,90.1,78.9,70.7,71.1,66.6,63.9,83,67,48,30.00,29.93,6,1,14,0.00
2013-8-17,75.0,74.5,73.6,66.2,64.8,62.5,77,72,67,30.00,29.97,2,0,5,0.34
2013-8-18,89.6,81.8,73.2,69.0,67.1,65.6,78,62,50,30.02,29.97,6,1,14,0.34
2013-8-19,83.5,76.3,70.2,69.8,67.2,64.4,84,74,62,30.08,29.98,3,0,9,0.00
2013-8-20,88.5,76.8,71.4,73.8,68.9,65.7,85,77,58,30.07,29.98,4,0,10,0.04
2013-8-21,92.5,79.4,72.1,74.8,69.9,66.7,86,74,50,30.11,30.03,4,0,11,0.01
2013-8-22,92.1,82.3,73.6,75.0,70.8,68.5,86,69,51,30.10,29.97,3,0,11,0.00
2013-8-23,93.4,81.6,74.3,73.7,70.2,68.7,84,70,49,30.02,29.91,4,0,12,0.01
2013-8-24,88.7,80.3,73.6,72.1,69.4,67.9,85,70,54,30.09,29.98,5,1,17,0.00
2013-8-25,87.4,77.9,73.0,72.5,69.2,66.9,83,75,59,30.16,30.07,4,1,15,0.00
2013-8-26,87.8,78.6,74.1,72.1,70.0,68.6,85,76,57,30.19,30.11,3,1,14,0.40
2013-8-27,89.8,79.6,72.3,72.7,68.5,66.2,86,70,48,30.14,30.04,3,0,9,0.01
2013-8-28,90.1,79.9,71.2,70.7,67.5,64.8,82,67,51,30.10,30.01,2,0,9,0.00
2013-8-29,90.0,79.5,69.6,71.8,67.4,63.7,83,68,51,30.09,29.98,2,0,8,0.00
2013-8-30,91.2,80.7,71.4,71.5,67.6,65.5,83,66,46,30.06,29.93,2,0,7,0.00
2013-8-31,93.7,82.6,72.3,72.7,69.1,66.0,84,65,47,30.00,29.86,4,0,8,0.00
2013-9-1,95.7,85.1,77.7,73.0,70.4,67.9,79,63,45,29.96,29.84,2,0,9,0.00
2013-9-2,96.4,85.3,76.5,73.3,70.2,68.2,79,62,42,30.00,29.86,3,0,11,0.00
2013-9-3,92.7,83.0,76.6,74.5,70.5,66.2,79,67,53,29.99,29.90,8,0,18,0.00
2013-9-4,95.0,80.2,73.2,73.6,69.6,67.2,84,72,47,30.06,29.95,6,0,17,0.06
2013-9-5,92.1,80.5,73.0,74.5,70.5,68.0,86,73,51,30.12,30.01,6,0,17,0.01
2013-9-6,92.8,80.0,73.4,74.0,69.9,67.3,86,73,48,30.12,29.99,4,0,11,0.00
2013-9-7,93.2,81.4,73.8,73.8,69.0,66.5,84,68,47,30.06,29.95,8,1,18,0.00
2013-9-8,91.2,79.1,70.2,70.7,66.7,64.4,85,68,43,30.03,29.93,3,0,9,0.00
2013-9-9,91.6,79.5,68.9,72.4,67.1,63.4,85,68,46,30.05,29.96,6,1,18,0.00
2013-9-10,91.6,80.8,71.4,72.3,68.7,65.5,84,68,49,30.12,30.01,5,0,12,0.00
2013-9-11,92.3,82.0,73.6,72.1,68.8,66.8,83,66,46,30.12,30.02,5,0,11,0.00
2013-9-12,94.1,81.6,71.4,71.6,66.7,63.8,84,63,37,30.06,29.91,4,1,10,0.00
2013-9-13,95.0,82.5,73.8,71.4,68.4,64.8,82,64,43,29.95,29.81,8,1,22,0.12
2013-9-14,89.8,80.3,73.0,70.5,68.9,66.9,85,70,51,29.98,29.88,4,0,11,0.01
2013-9-15,91.2,80.8,71.2,72.0,67.6,64.0,79,66,45,30.06,29.95,5,0,11,0.00
2013-9-16,93.0,81.9,72.1,73.6,68.7,66.0,85,66,46,30.07,29.99,5,1,11,0.00
2013-9-17,93.2,82.3,72.5,72.9,68.7,66.5,84,65,47,30.09,29.95,3,0,10,0.00
2013-9-18,93.6,81.4,73.8,73.9,69.2,66.9,82,68,47,30.05,29.94,6,1,17,0.00
2013-9-19,90.3,79.6,74.3,73.2,70.1,68.5,85,73,55,30.03,29.93,7,1,18,0.04
2013-9-20,87.1,78.5,74.8,74.3,72.4,70.1,85,82,63,29.97,29.77,8,1,20,0.57
2013-9-21,78.6,73.4,70.7,73.8,69.8,67.7,95,88,84,29.81,29.73,23,2,56,1.75
2013-9-22,78.8,69.7,65.8,69.8,63.8,59.2,97,83,52,29.85,29.76,7,2,20,0.01
2013-9-23,86.4,75.6,64.4,75.5,68.0,59.8,90,78,62,29.85,29.77,4,0,12,0.00
2013-9-24,88.3,80.4,73.8,79.8,74.9,70.7,95,84,64,29.85,29.79,9,1,23,0.02
2013-9-25,88.7,77.0,68.0,75.3,65.8,58.5,95,72,37,29.87,29.78,5,1,12,0.00
2013-9-26,87.4,75.2,63.3,70.2,64.2,60.7,93,71,45,29.96,29.83,4,0,9,0.00
2013-9-27,87.1,75.7,65.3,71.4,66.2,62.9,94,75,49,30.03,29.93,5,0,8,0.00
2013-9-28,86.4,78.2,69.6,72.2,68.6,66.5,92,74,52,30.07,29.98,6,1,11,0.00
2013-9-29,83.1,75.5,72.1,72.1,70.1,67.3,93,84,66,30.04,29.94,4,0,9,0.07
2013-9-30,82.4,74.6,72.0,74.6,71.4,69.5,94,90,76,29.95,29.88,4,0,10,0.00
2013-10-1,84.9,76.0,72.5,75.6,72.3,69.8,95,88,69,30.02,29.93,5,1,12,0.00
2013-10-2,86.4,78.3,72.0,76.8,72.5,69.9,97,83,64,30.05,29.94,6,1,11,0.00
2013-10-3,87.3,78.3,72.0,76.1,72.9,69.5,96,84,63,30.03,29.92,4,0,12,0.00
2013-10-4,87.3,78.3,75.2,77.1,74.0,72.0,94,87,66,30.02,29.93,7,1,18,0.00
2013-10-5,86.5,77.7,73.4,77.6,73.7,71.5,96,88,68,29.98,29.90,6,1,15,0.00
2013-10-6,75.9,70.6,59.9,73.5,62.5,51.3,95,77,52,30.01,29.87,12,4,24,0.02
2013-10-7,75.0,64.6,55.6,57.3,54.5,51.3,86,71,51,30.09,30.00,9,3,22,0.00
2013-10-8,75.9,64.3,54.3,59.3,56.2,51.8,95,77,54,30.09,30.00,5,1,14,0.00
2013-10-9,79.7,66.0,53.8,63.3,57.5,51.5,95,77,48,30.11,30.02,3,0,7,0.00
2013-10-10,78.8,67.3,57.7,69.7,62.5,56.0,97,85,63,30.12,30.00,3,0,9,0.00
2013-10-11,85.3,73.0,60.4,71.8,66.6,58.7,96,81,60,30.04,29.94,4,0,10,0.00
2013-10-12,86.9,75.7,68.2,75.5,70.6,66.1,95,85,64,30.12,29.97,6,1,12,1.18
2013-10-13,82.2,75.4,70.0,75.1,71.3,68.5,97,88,68,30.18,30.03,3,0,7,0.01
2013-10-14,83.5,75.6,69.8,71.4,69.0,66.4,93,81,57,30.13,30.01,3,0,14,0.00
2013-10-15,84.9,75.5,67.5,72.9,68.9,65.6,94,81,59,30.05,29.93,5,0,11,0.00
2013-10-16,84.7,76.5,69.8,74.4,70.2,66.7,95,82,60,29.99,29.89,6,1,15,0.00
2013-10-17,71.1,65.6,58.6,66.5,62.0,56.6,93,88,81,30.06,29.95,8,3,15,0.00
2013-10-18,72.9,63.3,54.3,61.9,58.1,53.1,97,84,61,30.06,29.93,2,0,7,0.00
2013-10-19,69.6,63.7,55.6,64.0,59.6,52.4,96,87,74,30.08,29.93,10,4,20,0.28
2013-10-20,71.2,59.8,50.0,57.0,53.5,48.3,96,81,53,30.11,29.98,3,0,10,0.00
2013-10-21,70.9,62.8,55.0,65.3,59.6,53.1,96,89,80,30.08,29.94,3,0,10,0.00
2013-10-22,72.3,64.0,56.7,66.7,60.3,54.3,96,88,74,30.06,29.97,10,2,23,0.00
2013-10-23,73.0,61.7,51.1,62.4,54.1,49.7,96,78,53,30.15,30.05,5,1,12,0.00
2013-10-24,79.2,65.1,51.6,61.6,55.9,49.3,93,74,49,30.24,30.13,3,0,12,0.00
2013-10-25,67.6,59.7,52.7,57.5,50.2,46.9,86,72,51,30.41,30.23,6,1,14,0.00
2013-10-26,75.0,59.4,46.4,56.3,50.3,44.2,93,74,46,30.31,30.14,3,0,9,0.00
2013-10-27,73.8,62.6,53.4,65.8,58.4,50.9,96,87,73,30.14,30.03,4,1,14,0.00
2013-10-28,79.3,70.5,62.6,70.6,65.6,60.6,96,85,68,30.18,30.04,3,0,10,0.00
2013-10-29,81.0,71.9,64.8,68.6,65.5,62.4,95,81,61,30.21,30.13,7,1,15,0.00
2013-10-30,79.0,72.1,65.3,72.0,67.4,62.9,95,86,72,30.17,29.97,7,2,15,0.00
2013-10-31,77.2,71.3,63.3,71.5,67.7,61.9,96,89,79,29.97,29.82,10,3,24,0.01
2013-11-1,71.1,63.3,55.6,63.6,59.0,53.0,97,87,60,29.97,29.85,5,1,14,0.00
2013-11-2,69.4,60.3,54.3,57.2,51.1,43.9,95,74,41,30.21,29.93,12,3,28,0.00
2013-11-3,54.1,51.8,50.5,47.4,46.1,45.0,85,81,73,30.22,30.17,0,0,0,0.02
2013-11-4,74.3,61.5,47.8,60.0,54.1,44.8,94,78,57,30.21,30.11,6,1,15,0.00
2013-11-5,76.5,68.8,62.2,66.5,62.9,58.5,91,82,70,30.16,30.07,7,2,22,0.00
2013-11-6,80.2,71.2,62.8,70.5,66.6,59.0,93,86,72,30.17,30.03,11,2,28,0.00
2013-11-7,62.6,55.3,48.7,59.5,47.2,41.3,95,75,51,30.37,30.17,12,6,28,0.00
2013-11-8,64.2,52.9,45.5,46.9,43.3,40.6,86,71,44,30.37,30.21,4,1,10,0.00
2013-11-9,68.5,57.5,47.5,52.9,48.7,43.5,91,74,50,30.26,30.17,5,1,11,0.00
2013-11-10,73.8,62.0,52.5,58.8,52.1,47.8,86,71,50,30.29,30.19,7,1,15,0.00
2013-11-11,72.9,60.1,49.5,56.4,51.7,46.8,93,75,51,30.27,30.15,4,0,9,0.00
2013-11-12,70.0,54.2,39.7,57.4,45.8,30.9,90,74,62,30.56,30.21,18,5,38,0.00
2013-11-13,53.1,42.5,33.1,32.7,30.2,26.9,79,63,43,30.59,30.42,9,3,20,0.00
2013-11-14,63.5,49.0,32.5,49.9,40.1,27.2,85,72,55,30.42,30.12,3,0,8,0.00
2013-11-15,75.2,63.5,54.3,64.3,58.0,49.1,93,83,64,30.12,29.95,3,0,8,0.01
2013-11-16,79.7,71.7,65.3,70.8,67.4,63.2,97,87,67,30.02,29.90,7,2,20,0.00
2013-11-17,82.6,76.0,71.2,74.3,71.9,67.9,94,87,75,29.96,29.85,5,2,16,0.00
2013-11-18,75.7,68.0,57.7,73.0,56.5,42.9,95,69,45,30.13,29.96,6,1,20,0.01
2013-11-19,64.6,55.9,47.3,45.0,41.0,34.5,75,59,33,30.19,30.06,5,2,12,0.00
2013-11-20,70.7,55.9,41.4,53.6,43.9,36.7,86,67,33,30.12,30.00,4,1,12,0.00
2013-11-21,74.1,66.3,57.7,69.2,63.5,53.4,97,91,83,30.16,30.07,5,2,15,0.00
2013-11-22,70.5,67.5,66.4,68.9,66.1,64.9,97,95,91,30.26,30.13,4,1,10,0.00
2013-11-23,49.3,46.8,44.6,48.5,43.9,39.8,97,90,83,30.39,30.28,8,5,22,0.05
2013-11-24,50.2,43.1,38.7,39.9,34.0,31.8,84,71,50,30.44,30.31,8,4,23,0.00
2013-11-25,45.0,41.0,38.5,44.2,37.1,32.1,98,86,68,30.34,29.93,9,4,22,0.66
2013-11-26,42.4,41.4,39.7,42.2,41.0,39.5,99,98,97,30.16,29.85,16,8,26,0.39
2013-11-27,45.3,39.4,30.2,39.9,33.8,26.3,97,82,58,30.43,30.15,14,4,23,0.00
2013-11-28,47.8,36.6,28.4,33.5,29.1,25.0,88,75,47,30.51,30.40,4,0,10,0.01
2013-11-29,58.3,42.2,29.1,37.7,32.0,26.0,89,70,36,30.54,30.42,4,1,11,0.00
2013-11-30,63.3,43.8,30.9,42.3,34.5,27.7,92,72,33,30.45,30.25,3,0,8,0.00
2013-12-1,70.2,54.7,37.4,53.5,45.6,34.1,91,73,52,30.27,29.99,3,0,9,0.00
2013-12-2,75.7,66.0,58.6,64.3,60.0,53.5,92,81,64,30.00,29.73,5,1,12,0.00
2013-12-3,79.5,70.8,65.1,67.7,65.6,62.9,96,84,62,29.79,29.68,5,2,18,0.00
2013-12-4,80.1,73.8,70.9,71.1,69.1,67.2,90,85,70,29.90,29.78,8,2,20,0.00
2013-12-5,81.0,73.7,53.1,72.2,68.3,50.8,92,84,67,29.99,29.88,10,3,20,0.01
2013-12-6,53.1,45.4,38.5,50.8,44.2,36.2,99,96,90,30.30,29.95,13,5,30,0.14
2013-12-7,38.5,35.0,33.6,36.5,32.0,30.6,95,89,83,30.37,30.26,11,4,32,0.00
2013-12-8,42.3,38.2,33.8,42.0,37.6,32.5,99,98,95,30.27,30.06,6,2,15,1.83
2013-12-9,42.3,41.8,37.9,42.0,41.5,37.7,99,99,99,30.22,30.07,12,4,20,0.11
2013-12-10,46.2,38.6,35.8,37.5,34.4,30.8,99,85,66,30.42,30.22,18,6,26,0.00
2013-12-11,48.2,41.7,33.1,41.5,36.2,30.0,90,81,69,30.47,30.34,6,2,14,0.00
2013-12-12,52.7,42.9,35.2,37.2,34.0,28.3,88,72,52,30.55,30.37,6,2,15,0.00
2013-12-13,61.7,46.1,34.5,56.8,38.3,28.5,84,74,66,30.37,29.88,8,1,18,0.00
2013-12-14,66.6,58.8,47.1,63.9,54.9,42.2,96,87,78,30.17,29.83,15,5,33,0.65
2013-12-15,50.0,43.4,34.7,42.2,36.6,30.7,87,77,65,30.33,30.17,12,5,24,0.00
2013-12-16,60.3,44.9,31.6,44.2,36.3,28.9,95,74,44,30.37,30.24,3,0,9,0.01
2013-12-17,64.4,48.0,33.1,48.4,40.2,30.2,95,76,51,30.36,30.25,4,0,9,0.00
2013-12-18,67.3,51.3,38.8,53.0,42.3,36.7,94,74,45,30.37,30.20,5,1,14,0.00
2013-12-19,73.9,61.1,48.0,61.4,53.8,44.2,89,78,55,30.20,29.98,9,3,24,0.00
2013-12-20,78.3,72.0,66.7,68.9,66.1,61.4,90,82,67,30.01,29.88,8,5,23,0.00
2013-12-21,77.4,71.7,61.3,70.1,66.7,58.8,93,84,76,29.89,29.66,13,6,34,0.31
2013-12-22,65.3,59.0,44.8,63.3,55.7,39.6,96,89,73,30.26,29.83,12,3,24,0.01
2013-12-23,47.3,41.6,33.4,39.5,34.4,27.7,84,76,62,30.52,30.24,14,5,30,0.00
2013-12-24,51.4,39.2,28.6,36.7,31.3,25.5,90,74,54,30.57,30.37,8,1,20,0.00
2013-12-25,52.0,40.3,30.0,35.3,31.4,26.5,88,72,48,30.42,30.32,5,1,9,0.00
2013-12-26,58.8,46.7,34.5,41.1,35.3,29.4,87,66,44,30.42,30.29,5,1,14,0.00
2013-12-27,52.9,48.1,43.7,39.5,37.5,36.3,76,67,54,30.46,30.30,6,1,12,0.00
2013-12-28,48.2,46.2,43.5,45.8,42.3,37.0,95,87,65,30.31,30.01,5,1,10,0.26
2013-12-29,60.1,47.1,34.5,47.9,40.1,32.7,97,79,47,30.14,30.01,4,0,8,0.00
2013-12-30,52.2,47.4,43.2,46.6,42.6,38.5,90,84,78,30.37,30.12,6,2,14,0.00
2013-12-31,47.3,43.3,39.0,39.3,37.2,35.0,86,79,68,30.44,30.30,5,2,11,0.00
2014-1-1,58.5,51.4,43.9,54.4,47.1,39.1,94,85,76,30.30,30.03,4,1,10,0.01
2014-1-2,56.7,49.3,38.1,55.3,40.3,27.6,95,72,49,30.40,29.99,18,6,34,0.08